Time;durP1;ratioP1;P1;durP2;ratioP2;P2;SDS_P1;SDS_P2;PMS_P1;PMS_P2;Temp;Humidity;BMP_temperature;BMP_pressure;BME280_temperature;BME280_humidity;BME280_pressure;Samples;Min_cycle;Max_cycle;Signal;HPM_P1;HPM_P2
2023/03/07 00:00:40;;;;;;;7.03;4.40;;;6.10;99.90;;;;;;4916301;29;20214;-90
2023/03/07 00:03:05;;;;;;;6.80;3.87;;;6.10;99.90;;;;;;4908830;29;20195;-91
2023/03/07 00:05:32;;;;;;;7.83;3.93;;;6.10;99.90;;;;;;4903441;29;20205;-89
2023/03/07 00:07:59;;;;;;;6.57;4.37;;;6.20;99.90;;;;;;4908378;29;20182;-89
2023/03/07 00:10:26;;;;;;;6.80;3.97;;;6.20;99.90;;;;;;4911954;29;20189;-88
2023/03/07 00:12:52;;;;;;;8.23;4.97;;;6.20;99.90;;;;;;4912727;29;20214;-88
2023/03/07 00:15:18;;;;;;;7.30;4.70;;;6.20;99.90;;;;;;4913879;29;20182;-91
2023/03/07 00:17:43;;;;;;;9.13;5.63;;;6.30;99.90;;;;;;4901989;29;20517;-89
2023/03/07 00:20:10;;;;;;;10.43;5.43;;;6.20;99.90;;;;;;4901809;29;20181;-89
2023/03/07 00:22:36;;;;;;;12.27;6.87;;;6.30;99.90;;;;;;4901894;29;20228;-90
2023/03/07 00:25:03;;;;;;;13.63;7.43;;;6.30;99.90;;;;;;4900854;29;20205;-89
2023/03/07 00:27:31;;;;;;;14.13;7.23;;;6.40;99.90;;;;;;4899774;29;20227;-90
2023/03/07 00:29:57;;;;;;;16.47;8.67;;;6.60;99.90;;;;;;4899689;29;20178;-90
2023/03/07 00:32:23;;;;;;;16.87;9.30;;;6.60;99.90;;;;;;4899442;29;20178;-89
2023/03/07 00:34:49;;;;;;;14.50;9.50;;;6.60;99.90;;;;;;4899695;29;20183;-89
2023/03/07 00:37:14;;;;;;;14.20;10.50;;;6.50;99.90;;;;;;4900630;29;20194;-89
2023/03/07 00:39:41;;;;;;;15.93;10.60;;;6.30;99.90;;;;;;4899700;29;20222;-90
2023/03/07 00:42:08;;;;;;;14.83;10.20;;;6.20;99.90;;;;;;4899469;29;20186;-90
2023/03/07 00:44:34;;;;;;;17.97;10.97;;;6.40;99.90;;;;;;4900489;29;20186;-89
2023/03/07 00:47:00;;;;;;;13.40;10.30;;;6.50;99.90;;;;;;4900939;29;20186;-90
2023/03/07 00:49:26;;;;;;;14.60;10.73;;;6.40;99.90;;;;;;4908673;29;20183;-90
2023/03/07 00:51:53;;;;;;;15.03;10.53;;;6.40;99.90;;;;;;4916137;29;20187;-91
2023/03/07 00:54:18;;;;;;;16.13;10.50;;;6.40;99.90;;;;;;4917544;29;20214;-87
2023/03/07 00:56:44;;;;;;;14.87;9.80;;;6.20;99.90;;;;;;4909147;29;20629;-88
2023/03/07 00:59:12;;;;;;;16.50;10.63;;;6.30;99.90;;;;;;4912802;29;20255;-86
2023/03/07 01:01:37;;;;;;;13.50;10.07;;;6.20;99.90;;;;;;4912493;29;20261;-88
2023/03/07 01:04:03;;;;;;;15.30;10.07;;;6.30;99.90;;;;;;4917529;29;20206;-89
2023/03/07 01:06:32;;;;;;;13.57;10.13;;;6.20;99.90;;;;;;4918733;29;20209;-89
2023/03/07 01:09:06;;;;;;;13.07;9.40;;;6.20;99.90;;;;;;4905860;29;20223;-87
2023/03/07 01:11:35;;;;;;;15.90;10.40;;;6.30;99.90;;;;;;4918571;29;20191;-87
2023/03/07 01:14:03;;;;;;;16.13;10.33;;;6.20;99.90;;;;;;4921317;29;20210;-87
2023/03/07 01:16:34;;;;;;;12.50;9.60;;;6.20;99.90;;;;;;4908064;29;20230;-88
2023/03/07 01:19:02;;;;;;;14.53;9.90;;;6.20;99.90;;;;;;4902470;29;20205;-87
2023/03/07 01:21:47;;;;;;;14.23;10.17;;;6.10;99.90;;;;;;4900320;29;20179;-88
2023/03/07 01:24:14;;;;;;;17.80;10.83;;;6.20;99.90;;;;;;4899840;29;20194;-87
2023/03/07 01:26:40;;;;;;;18.57;10.57;;;6.10;99.90;;;;;;4916153;29;20167;-88
2023/03/07 01:29:07;;;;;;;15.23;9.93;;;6.10;99.90;;;;;;4911276;29;20186;-88
2023/03/07 01:31:33;;;;;;;14.23;10.43;;;6.10;99.90;;;;;;4908811;29;20178;-88
2023/03/07 01:34:00;;;;;;;13.93;9.80;;;6.00;99.90;;;;;;4904281;29;20210;-88
2023/03/07 01:36:29;;;;;;;14.10;10.13;;;6.00;99.90;;;;;;4908774;29;20182;-88
2023/03/07 01:39:13;;;;;;;15.50;10.30;;;5.90;99.90;;;;;;4891005;29;20190;-88
2023/03/07 01:41:39;;;;;;;15.23;10.07;;;6.00;99.90;;;;;;4909955;29;20208;-88
2023/03/07 01:44:14;;;;;;;15.83;10.53;;;6.00;99.90;;;;;;4901488;29;20182;-88
2023/03/07 01:46:49;;;;;;;14.27;10.63;;;6.10;99.90;;;;;;4899300;29;20186;-88
2023/03/07 01:49:37;;;;;;;18.37;11.43;;;6.00;99.90;;;;;;4898537;29;20177;-88
2023/03/07 01:52:07;;;;;;;18.83;10.40;;;6.00;99.90;;;;;;4897423;29;20178;-87
2023/03/07 01:54:38;;;;;;;16.57;11.30;;;6.00;99.90;;;;;;4899008;29;20659;-87
2023/03/07 01:57:04;;;;;;;15.97;11.40;;;6.00;99.90;;;;;;4898401;29;20209;-89
2023/03/07 01:59:33;;;;;;;15.07;10.93;;;6.20;99.90;;;;;;4898814;29;20193;-88
2023/03/07 02:02:06;;;;;;;16.63;11.40;;;5.90;99.90;;;;;;4898236;29;20181;-88
2023/03/07 02:04:40;;;;;;;17.60;11.40;;;6.00;99.90;;;;;;4898159;29;20254;-88
2023/03/07 02:07:09;;;;;;;16.97;11.20;;;6.00;99.90;;;;;;4898770;29;20182;-86
2023/03/07 02:09:36;;;;;;;17.73;12.20;;;5.90;99.90;;;;;;4898648;29;20299;-89
2023/03/07 02:12:03;;;;;;;17.20;11.40;;;5.80;99.90;;;;;;4899234;29;20698;-88
2023/03/07 02:14:28;;;;;;;15.57;11.17;;;5.80;99.90;;;;;;4898917;29;20258;-87
2023/03/07 02:16:54;;;;;;;18.57;12.00;;;5.80;99.90;;;;;;4901524;29;20178;-88
2023/03/07 02:19:46;;;;;;;16.93;11.40;;;5.90;99.90;;;;;;4902231;29;20356;-89
2023/03/07 02:22:16;;;;;;;15.47;11.33;;;6.00;99.90;;;;;;4902241;29;20186;-87
2023/03/07 02:24:50;;;;;;;16.37;12.13;;;6.00;99.90;;;;;;4902438;29;20183;-88
2023/03/07 02:27:16;;;;;;;15.53;11.27;;;5.90;99.90;;;;;;4903037;29;20169;-88
2023/03/07 02:29:42;;;;;;;17.33;12.30;;;5.90;99.90;;;;;;4902283;29;20242;-88
2023/03/07 02:32:08;;;;;;;18.80;12.00;;;5.90;99.90;;;;;;4903435;29;20174;-88
2023/03/07 02:34:34;;;;;;;16.10;12.00;;;5.90;99.90;;;;;;4901648;29;20599;-88
2023/03/07 02:37:20;;;;;;;18.30;11.60;;;5.90;99.90;;;;;;4901497;29;20179;-87
2023/03/07 02:39:46;;;;;;;15.53;11.30;;;5.90;99.90;;;;;;4909864;29;20176;-88
2023/03/07 02:42:26;;;;;;;14.10;11.00;;;5.90;99.90;;;;;;4942681;29;20649;-88
2023/03/07 02:45:13;;;;;;;16.27;11.33;;;6.00;99.90;;;;;;4947669;29;20185;-89
2023/03/07 02:47:41;;;;;;;16.93;11.90;;;5.90;99.90;;;;;;4940506;29;20255;-89
2023/03/07 02:50:07;;;;;;;16.87;11.67;;;6.00;99.90;;;;;;4941736;29;20211;-88
2023/03/07 02:52:33;;;;;;;15.40;11.53;;;5.90;99.90;;;;;;4945855;29;20208;-86
2023/03/07 02:54:58;;;;;;;16.40;12.03;;;6.00;99.90;;;;;;4961523;28;20191;-86
2023/03/07 02:57:24;;;;;;;14.17;11.43;;;5.90;99.90;;;;;;4960699;28;20184;-87
2023/03/07 02:59:50;;;;;;;17.13;11.80;;;5.90;99.90;;;;;;4947592;29;20646;-87
2023/03/07 03:02:16;;;;;;;15.23;11.03;;;5.80;99.90;;;;;;4926534;29;20181;-87
2023/03/07 03:04:41;;;;;;;17.07;11.30;;;5.90;99.90;;;;;;4941065;29;20200;-88
2023/03/07 03:07:10;;;;;;;17.30;11.37;;;5.90;99.90;;;;;;4948636;28;20180;-86
2023/03/07 03:09:37;;;;;;;16.50;11.07;;;5.80;99.90;;;;;;4961403;28;20169;-88
2023/03/07 03:12:03;;;;;;;15.57;11.13;;;5.80;99.90;;;;;;4951236;28;20181;-88
2023/03/07 03:14:29;;;;;;;19.03;11.37;;;5.90;99.90;;;;;;4948537;29;20232;-87
2023/03/07 03:16:57;;;;;;;16.50;11.73;;;5.80;99.90;;;;;;4940341;29;20637;-88
2023/03/07 03:19:23;;;;;;;15.43;11.60;;;5.80;99.90;;;;;;4940699;29;20212;-88
2023/03/07 03:21:50;;;;;;;15.00;10.90;;;5.90;99.90;;;;;;4938688;29;20181;-88
2023/03/07 03:24:16;;;;;;;16.60;11.43;;;5.90;99.70;;;;;;4953497;29;20182;-87
2023/03/07 03:26:41;;;;;;;17.40;11.50;;;5.90;99.30;;;;;;4953068;29;20181;-86
2023/03/07 03:29:08;;;;;;;14.63;11.13;;;5.90;99.10;;;;;;4955307;29;20272;-88
2023/03/07 03:31:34;;;;;;;15.00;11.50;;;5.90;98.10;;;;;;4953553;29;20161;-85
2023/03/07 03:34:00;;;;;;;17.10;11.50;;;5.90;97.60;;;;;;4956243;29;20223;-89
2023/03/07 03:36:27;;;;;;;18.83;10.93;;;5.90;97.90;;;;;;4949806;29;20594;-88
2023/03/07 03:38:58;;;;;;;16.00;11.80;;;5.90;96.80;;;;;;4941139;29;20200;-87
2023/03/07 03:41:24;;;;;;;14.77;11.37;;;5.80;97.00;;;;;;4939870;29;20264;-89
2023/03/07 03:43:51;;;;;;;17.93;10.53;;;5.90;98.30;;;;;;4954108;29;20173;-87
2023/03/07 03:46:33;;;;;;;18.17;12.37;;;5.90;97.80;;;;;;4944541;29;20180;-88
2023/03/07 03:48:59;;;;;;;17.33;11.53;;;5.90;97.20;;;;;;4937718;29;20177;-88
2023/03/07 03:51:26;;;;;;;15.83;11.53;;;5.80;96.50;;;;;;4938109;29;20169;-87
2023/03/07 03:53:52;;;;;;;15.17;10.57;;;6.00;97.30;;;;;;4937705;29;20251;-87
2023/03/07 03:56:20;;;;;;;15.67;11.20;;;5.90;97.10;;;;;;4938473;29;20626;-88
2023/03/07 03:58:47;;;;;;;18.17;11.80;;;6.00;96.00;;;;;;4939052;29;20606;-88
2023/03/07 04:01:13;;;;;;;17.63;10.90;;;6.00;94.90;;;;;;4943891;29;20180;-88
2023/03/07 04:03:41;;;;;;;16.27;11.63;;;5.90;94.10;;;;;;4944274;29;20235;-89
2023/03/07 04:06:11;;;;;;;14.70;10.27;;;5.90;93.10;;;;;;4939510;29;20223;-89
2023/03/07 04:08:39;;;;;;;15.13;11.33;;;5.90;94.50;;;;;;4938604;29;20177;-89
2023/03/07 04:11:05;;;;;;;15.43;10.73;;;5.80;95.00;;;;;;4938388;29;20264;-88
2023/03/07 04:13:32;;;;;;;13.67;10.67;;;5.80;94.60;;;;;;4937490;29;20240;-87
2023/03/07 04:15:58;;;;;;;15.57;10.90;;;5.80;95.80;;;;;;4938082;29;20665;-87
2023/03/07 04:18:24;;;;;;;14.07;10.83;;;5.80;96.50;;;;;;4944782;29;20258;-86
2023/03/07 04:20:51;;;;;;;15.77;10.90;;;5.90;96.10;;;;;;4951015;29;20176;-86
2023/03/07 04:23:18;;;;;;;15.67;11.23;;;6.10;94.90;;;;;;4948253;29;20184;-89
2023/03/07 04:25:55;;;;;;;15.27;10.93;;;6.00;93.40;;;;;;4936684;29;20181;-89
2023/03/07 04:28:24;;;;;;;16.30;11.00;;;6.10;92.40;;;;;;4937718;29;20232;-88
2023/03/07 04:30:51;;;;;;;21.87;12.97;;;5.90;92.40;;;;;;4940717;29;20177;-89
2023/03/07 04:33:17;;;;;;;15.13;10.73;;;5.90;93.70;;;;;;4937128;29;20221;-87
2023/03/07 04:35:44;;;;;;;15.27;11.30;;;5.90;95.70;;;;;;4937464;29;20220;-89
2023/03/07 04:38:11;;;;;;;15.23;10.47;;;5.90;96.30;;;;;;4936520;29;20622;-89
2023/03/07 04:40:37;;;;;;;15.37;10.47;;;5.90;95.90;;;;;;4937239;29;20517;-88
2023/03/07 04:43:04;;;;;;;14.60;10.63;;;5.90;97.40;;;;;;4938619;29;20224;-88
2023/03/07 04:45:33;;;;;;;15.00;10.50;;;5.90;96.50;;;;;;4938251;29;20200;-87
2023/03/07 04:48:00;;;;;;;14.63;11.07;;;5.80;96.30;;;;;;4948018;29;20336;-87
2023/03/07 04:50:25;;;;;;;14.00;10.60;;;5.80;97.00;;;;;;4950298;29;20176;-87
2023/03/07 04:52:51;;;;;;;13.57;10.97;;;5.80;97.10;;;;;;4953720;29;20201;-88
2023/03/07 04:55:17;;;;;;;15.43;10.73;;;5.90;97.30;;;;;;4948612;29;20184;-89
2023/03/07 04:57:43;;;;;;;13.20;10.30;;;5.80;97.50;;;;;;4938990;29;20219;-89
2023/03/07 05:00:09;;;;;;;15.97;11.30;;;5.80;97.50;;;;;;4939756;29;20544;-89
2023/03/07 05:02:36;;;;;;;13.20;10.40;;;5.80;98.80;;;;;;4940952;29;20185;-89
2023/03/07 05:05:03;;;;;;;14.63;11.03;;;5.80;98.60;;;;;;4942539;29;20232;-88
2023/03/07 05:07:29;;;;;;;15.47;10.83;;;5.90;97.30;;;;;;4945405;29;20694;-89
2023/03/07 05:09:55;;;;;;;15.77;11.70;;;6.00;97.80;;;;;;4946111;29;20173;-88
2023/03/07 05:12:22;;;;;;;15.40;11.40;;;5.90;97.20;;;;;;4936303;29;20188;-89
2023/03/07 05:14:47;;;;;;;15.60;11.60;;;5.90;96.50;;;;;;4936814;29;20211;-89
2023/03/07 05:17:14;;;;;;;14.87;11.23;;;5.90;96.70;;;;;;4936591;29;20634;-88
2023/03/07 05:19:40;;;;;;;13.73;10.67;;;5.90;96.80;;;;;;4953159;28;20222;-88
2023/03/07 05:22:09;;;;;;;14.77;11.17;;;6.00;96.00;;;;;;4936880;29;20165;-86
2023/03/07 05:24:35;;;;;;;17.10;11.30;;;6.00;95.20;;;;;;4936853;29;20173;-87
2023/03/07 05:27:00;;;;;;;14.90;11.27;;;5.90;96.10;;;;;;4936256;29;20242;-88
2023/03/07 05:29:27;;;;;;;15.57;11.50;;;5.90;97.40;;;;;;4936198;29;20633;-88
2023/03/07 05:31:53;;;;;;;16.00;11.70;;;5.80;97.80;;;;;;4936809;29;20184;-88
2023/03/07 05:34:19;;;;;;;18.67;10.80;;;6.10;99.30;;;;;;4936542;29;20275;-90
2023/03/07 05:36:46;;;;;;;13.97;10.20;;;5.90;98.70;;;;;;4935506;29;20211;-89
2023/03/07 05:39:14;;;;;;;15.47;10.43;;;5.80;99.50;;;;;;4938613;29;20247;-89
2023/03/07 05:41:40;;;;;;;15.50;10.47;;;5.90;99.90;;;;;;4936788;29;20176;-89
2023/03/07 05:44:05;;;;;;;15.93;10.47;;;5.70;99.90;;;;;;4936257;29;20181;-88
2023/03/07 05:46:31;;;;;;;13.47;10.10;;;5.80;99.90;;;;;;4940085;29;20184;-88
2023/03/07 05:48:57;;;;;;;14.97;11.13;;;5.70;99.90;;;;;;4937485;29;20203;-88
2023/03/07 05:51:23;;;;;;;15.37;10.63;;;5.80;99.90;;;;;;4943017;29;20180;-88
2023/03/07 05:53:50;;;;;;;15.30;11.17;;;5.80;99.90;;;;;;4943872;29;20329;-89
2023/03/07 05:56:17;;;;;;;14.07;12.00;;;5.80;99.90;;;;;;4939880;29;20169;-89
2023/03/07 05:58:43;;;;;;;16.50;12.00;;;5.80;99.90;;;;;;4958597;29;20177;-88
2023/03/07 06:01:09;;;;;;;16.60;11.87;;;5.80;99.90;;;;;;4961050;28;20188;-89
2023/03/07 06:03:34;;;;;;;17.77;11.73;;;5.80;99.90;;;;;;4960074;28;20672;-89
2023/03/07 06:06:03;;;;;;;15.83;11.97;;;5.70;99.90;;;;;;4959584;28;20248;-88
2023/03/07 06:08:29;;;;;;;16.87;11.57;;;5.80;99.90;;;;;;4961556;28;20185;-89
2023/03/07 06:10:55;;;;;;;14.93;11.73;;;5.90;99.90;;;;;;4948657;29;20267;-87
2023/03/07 06:13:31;;;;;;;15.57;11.63;;;5.80;99.90;;;;;;4947948;29;20220;-89
2023/03/07 06:15:58;;;;;;;15.90;11.87;;;5.80;99.90;;;;;;4945440;29;20184;-91
2023/03/07 06:18:24;;;;;;;15.80;11.83;;;5.70;99.90;;;;;;4932507;29;20186;-87
2023/03/07 06:20:58;;;;;;;18.73;12.43;;;5.80;99.90;;;;;;4921141;29;20181;-87
2023/03/07 06:23:29;;;;;;;15.67;11.53;;;5.80;99.90;;;;;;4925092;29;20192;-89
2023/03/07 06:25:56;;;;;;;15.20;11.23;;;5.80;99.90;;;;;;4922475;29;20525;-90
2023/03/07 06:28:22;;;;;;;17.53;12.00;;;5.70;99.90;;;;;;4927255;29;20197;-88
2023/03/07 06:30:48;;;;;;;15.20;11.33;;;5.80;99.90;;;;;;4929552;29;20252;-91
2023/03/07 06:33:19;;;;;;;14.93;11.43;;;5.80;99.90;;;;;;4908149;29;20213;-89
2023/03/07 06:35:45;;;;;;;17.17;11.90;;;5.90;99.90;;;;;;4937055;29;20162;-89
2023/03/07 06:38:16;;;;;;;17.73;11.67;;;5.80;99.90;;;;;;4934420;29;20233;-90
2023/03/07 06:40:42;;;;;;;14.90;11.60;;;5.90;99.90;;;;;;4932100;29;20205;-88
2023/03/07 06:43:10;;;;;;;15.67;11.97;;;6.20;99.90;;;;;;4932196;29;20233;-87
2023/03/07 06:45:37;;;;;;;16.53;12.03;;;6.00;98.10;;;;;;4925793;29;20185;-87
2023/03/07 06:48:05;;;;;;;16.83;11.53;;;5.90;98.40;;;;;;4922676;29;20178;-88
2023/03/07 06:50:41;;;;;;;16.50;11.73;;;5.80;99.50;;;;;;4922871;29;20178;-89
2023/03/07 06:53:08;;;;;;;17.67;12.80;;;6.00;99.90;;;;;;4915612;29;20205;-90
2023/03/07 06:55:37;;;;;;;14.47;11.67;;;5.90;99.90;;;;;;4930039;29;20182;-89
2023/03/07 06:58:03;;;;;;;16.73;12.30;;;6.00;99.90;;;;;;4927817;29;20698;-88
2023/03/07 07:00:37;;;;;;;16.37;11.33;;;5.90;99.90;;;;;;4916069;29;20179;-89
2023/03/07 07:03:03;;;;;;;14.30;12.20;;;6.00;99.70;;;;;;4904210;29;20190;-91
2023/03/07 07:05:31;;;;;;;19.87;11.87;;;6.00;99.90;;;;;;4904559;29;20198;-90
2023/03/07 07:07:56;;;;;;;16.23;11.80;;;6.10;99.90;;;;;;4921908;29;20289;-88
2023/03/07 07:10:22;;;;;;;15.37;11.73;;;6.00;99.10;;;;;;4906583;29;20202;-90
2023/03/07 07:12:53;;;;;;;14.90;11.10;;;6.00;99.90;;;;;;4937236;29;20205;-89
2023/03/07 07:15:19;;;;;;;17.10;12.10;;;6.20;99.90;;;;;;4942781;29;20188;-91
2023/03/07 07:17:47;;;;;;;15.67;11.50;;;6.20;99.60;;;;;;4924555;29;20185;-92
2023/03/07 07:20:13;;;;;;;15.87;11.33;;;6.00;99.90;;;;;;4924562;29;20178;-89
2023/03/07 07:22:41;;;;;;;13.67;10.27;;;6.10;99.90;;;;;;4925565;29;20606;-92
2023/03/07 07:25:08;;;;;;;15.67;10.47;;;6.10;99.90;;;;;;4907823;29;20647;-87
2023/03/07 07:27:37;;;;;;;14.67;10.10;;;6.20;99.40;;;;;;4923224;29;20212;-91
2023/03/07 07:30:05;;;;;;;14.67;11.20;;;6.20;97.90;;;;;;4921277;29;20185;-88
2023/03/07 07:32:31;;;;;;;16.07;11.63;;;6.30;97.10;;;;;;4927354;29;20174;-92
2023/03/07 07:34:56;;;;;;;16.00;11.63;;;6.30;96.90;;;;;;4931057;29;20185;-92
2023/03/07 07:37:22;;;;;;;14.87;9.90;;;6.30;97.50;;;;;;4919359;29;20178;-91
2023/03/07 07:39:49;;;;;;;13.77;10.77;;;6.20;97.10;;;;;;4920922;29;20178;-91
2023/03/07 07:42:16;;;;;;;12.87;10.37;;;6.40;98.00;;;;;;4932505;29;20189;-91
2023/03/07 07:44:42;;;;;;;14.37;10.77;;;6.30;98.60;;;;;;4928131;29;20404;-90
2023/03/07 07:47:09;;;;;;;13.30;10.40;;;6.30;97.10;;;;;;4925318;29;20193;-91
2023/03/07 07:49:34;;;;;;;13.60;10.93;;;6.60;97.70;;;;;;4931799;29;20181;-90
2023/03/07 07:52:00;;;;;;;14.53;10.63;;;6.20;97.70;;;;;;4936909;29;20178;-90
2023/03/07 07:54:27;;;;;;;15.10;11.20;;;6.20;99.10;;;;;;4937612;29;20221;-91
2023/03/07 07:56:52;;;;;;;13.20;10.63;;;6.20;99.90;;;;;;4936766;29;20193;-90
2023/03/07 07:59:24;;;;;;;13.10;9.70;;;6.20;99.90;;;;;;4939672;29;20249;-93
2023/03/07 08:01:56;;;;;;;14.80;10.70;;;6.20;99.90;;;;;;4939953;29;20162;-90
2023/03/07 08:04:24;;;;;;;15.73;9.90;;;6.20;99.90;;;;;;4935324;29;20197;-90
2023/03/07 08:06:58;;;;;;;13.43;9.70;;;6.20;99.90;;;;;;4933218;29;20194;-90
2023/03/07 08:09:31;;;;;;;11.90;9.37;;;6.20;99.90;;;;;;4921364;29;20766;-91
2023/03/07 08:11:59;;;;;;;13.53;9.40;;;6.20;99.90;;;;;;4921576;29;20201;-91
2023/03/07 08:14:24;;;;;;;11.50;8.97;;;6.30;99.90;;;;;;4919768;29;20246;-91
2023/03/07 08:16:50;;;;;;;10.03;8.83;;;6.20;99.90;;;;;;4910654;29;20643;-90
2023/03/07 08:19:17;;;;;;;12.70;9.30;;;6.20;99.90;;;;;;4901792;29;20194;-91
2023/03/07 08:21:43;;;;;;;13.40;10.10;;;6.20;99.90;;;;;;4901085;29;20210;-90
2023/03/07 08:24:09;;;;;;;15.77;10.87;;;6.20;99.90;;;;;;4903987;29;20194;-90
2023/03/07 08:26:35;;;;;;;13.07;10.07;;;6.30;99.90;;;;;;4902186;29;20185;-91
2023/03/07 08:29:00;;;;;;;17.10;11.10;;;6.40;99.90;;;;;;4906578;29;20182;-90
2023/03/07 08:31:26;;;;;;;14.60;11.70;;;6.20;99.90;;;;;;4913767;29;20667;-91
2023/03/07 08:33:52;;;;;;;16.57;11.90;;;6.30;99.90;;;;;;4904318;29;20222;-91
2023/03/07 08:36:19;;;;;;;15.60;12.10;;;6.30;99.90;;;;;;4920055;29;20182;-90
2023/03/07 08:38:50;;;;;;;15.37;11.27;;;6.30;99.90;;;;;;4919313;29;20181;-90
2023/03/07 08:41:16;;;;;;;13.93;11.47;;;6.30;99.90;;;;;;4920452;29;20166;-92
2023/03/07 08:43:51;;;;;;;18.30;12.43;;;6.20;99.90;;;;;;4920988;29;20178;-91
2023/03/07 08:46:28;;;;;;;15.10;12.00;;;6.30;99.90;;;;;;4919214;29;20178;-91
2023/03/07 08:49:14;;;;;;;17.20;12.43;;;6.20;99.90;;;;;;4912232;29;20234;-89
2023/03/07 08:52:18;;;;;;;19.13;12.93;;;6.40;99.90;;;;;;4905502;29;20170;-91
2023/03/07 08:54:44;;;;;;;17.57;13.20;;;6.40;99.90;;;;;;4901649;29;20221;-93
2023/03/07 08:57:10;;;;;;;15.63;12.23;;;6.30;99.90;;;;;;4901156;29;20210;-92
2023/03/07 08:59:37;;;;;;;15.13;12.07;;;6.50;99.90;;;;;;4902700;29;20591;-90
2023/03/07 09:02:03;;;;;;;16.57;11.27;;;6.50;99.90;;;;;;4902545;29;20217;-90
2023/03/07 09:04:30;;;;;;;13.63;10.93;;;6.40;99.90;;;;;;4901361;29;20268;-91
2023/03/07 09:06:57;;;;;;;15.93;11.00;;;6.40;99.90;;;;;;4902199;29;20182;-91
2023/03/07 09:09:23;;;;;;;15.13;10.47;;;6.50;99.90;;;;;;4918514;29;20170;-90
2023/03/07 09:11:49;;;;;;;14.40;11.30;;;6.60;99.90;;;;;;4899492;29;20186;-92
2023/03/07 09:14:14;;;;;;;13.50;10.63;;;6.40;99.90;;;;;;4913968;29;20309;-90
2023/03/07 09:16:42;;;;;;;12.37;10.10;;;6.40;99.90;;;;;;4906538;29;20178;-89
2023/03/07 09:19:08;;;;;;;14.27;9.87;;;6.40;99.90;;;;;;4921271;29;20194;-91
2023/03/07 09:21:34;;;;;;;13.93;9.70;;;6.50;99.90;;;;;;4919622;29;20246;-90
2023/03/07 09:24:09;;;;;;;16.63;9.80;;;6.50;99.90;;;;;;4917094;29;20190;-90
2023/03/07 09:26:36;;;;;;;11.20;9.33;;;6.40;99.90;;;;;;4916980;29;20221;-90
2023/03/07 09:29:03;;;;;;;11.63;8.97;;;6.50;99.90;;;;;;4918973;29;20166;-92
2023/03/07 09:31:28;;;;;;;11.97;8.60;;;6.40;99.90;;;;;;4911824;29;20166;-90
2023/03/07 09:33:56;;;;;;;12.57;8.57;;;6.50;99.90;;;;;;4909411;29;20231;-91
2023/03/07 09:36:22;;;;;;;10.67;7.70;;;6.30;99.90;;;;;;4886665;29;20189;-92
2023/03/07 09:38:48;;;;;;;13.37;8.90;;;6.30;99.90;;;;;;4886020;29;20186;-92
2023/03/07 09:41:33;;;;;;;15.83;10.00;;;6.40;99.90;;;;;;4891796;29;20186;-90
2023/03/07 09:44:58;;;;;;;12.67;9.60;;;6.40;99.90;;;;;;4912926;29;20249;-88
2023/03/07 09:47:49;;;;;;;13.20;9.83;;;6.40;99.90;;;;;;4854308;29;20176;-92
2023/03/07 09:50:53;;;;;;;14.60;10.30;;;6.40;99.90;;;;;;4902380;29;20190;-91
2023/03/07 09:53:42;;;;;;;14.03;10.63;;;6.40;99.90;;;;;;4903984;29;20616;-91
2023/03/07 09:56:15;;;;;;;14.97;11.47;;;6.40;99.90;;;;;;4902769;29;20186;-91
2023/03/07 09:58:51;;;;;;;13.23;10.27;;;6.50;99.90;;;;;;4906324;29;20199;-91
2023/03/07 10:01:21;;;;;;;11.50;8.60;;;6.40;99.90;;;;;;4902845;29;20174;-92
2023/03/07 10:04:25;;;;;;;9.77;8.20;;;6.30;99.90;;;;;;4912382;29;20205;-89
2023/03/07 10:06:57;;;;;;;5.93;5.00;;;6.20;99.90;;;;;;4913755;29;20237;-89
2023/03/07 10:09:26;;;;;;;7.47;5.83;;;6.10;99.90;;;;;;4913726;29;20178;-90
2023/03/07 10:12:36;;;;;;;7.00;5.03;;;5.90;99.90;;;;;;4909411;29;20190;-91
2023/03/07 10:15:08;;;;;;;7.43;5.73;;;5.90;99.90;;;;;;4903811;29;20191;-91
2023/03/07 10:17:59;;;;;;;9.57;6.00;;;6.00;99.90;;;;;;4901924;29;20190;-92
2023/03/07 10:20:39;;;;;;;7.83;5.60;;;6.10;99.90;;;;;;4911581;29;20178;-92
2023/03/07 10:23:19;;;;;;;9.03;6.73;;;6.00;99.90;;;;;;4902137;29;20506;-90
2023/03/07 10:25:55;;;;;;;9.33;7.60;;;6.20;99.90;;;;;;4904107;29;20186;-90
2023/03/07 10:28:29;;;;;;;10.90;8.17;;;6.40;99.90;;;;;;4884791;29;20197;-91
2023/03/07 10:31:18;;;;;;;12.83;8.57;;;6.40;99.90;;;;;;4905117;29;20181;-91
2023/03/07 10:33:49;;;;;;;10.13;8.63;;;6.50;99.90;;;;;;4908938;29;20234;-91
2023/03/07 10:36:42;;;;;;;11.93;9.17;;;6.70;99.90;;;;;;4905683;29;20174;-94
2023/03/07 10:39:32;;;;;;;14.87;10.23;;;6.60;99.90;;;;;;4909841;29;20215;-91
2023/03/07 10:41:59;;;;;;;10.80;6.27;;;6.60;99.90;;;;;;4904538;29;20631;-91
2023/03/07 10:44:30;;;;;;;8.60;5.10;;;6.60;99.90;;;;;;4907787;29;20210;-90
2023/03/07 10:46:58;;;;;;;5.40;4.37;;;6.50;99.90;;;;;;4906441;29;20171;-90
2023/03/07 10:49:36;;;;;;;5.80;4.37;;;6.40;99.90;;;;;;4908354;29;20183;-91
2023/03/07 10:52:38;;;;;;;7.43;5.10;;;6.30;99.90;;;;;;4907027;29;20178;-90
2023/03/07 10:55:35;;;;;;;5.70;4.37;;;6.40;99.90;;;;;;4907260;29;20241;-91
2023/03/07 10:58:28;;;;;;;5.93;4.30;;;6.40;99.90;;;;;;4907763;29;20211;-91
2023/03/07 11:01:15;;;;;;;4.73;3.80;;;6.40;99.90;;;;;;4908503;29;20206;-91
2023/03/07 11:03:50;;;;;;;5.30;3.50;;;6.30;99.90;;;;;;4904845;29;20222;-90
2023/03/07 11:06:33;;;;;;;5.33;3.70;;;6.20;99.90;;;;;;4906607;29;20225;-90
2023/03/07 11:09:23;;;;;;;7.23;3.80;;;6.20;99.90;;;;;;4907401;29;20174;-89
2023/03/07 11:12:16;;;;;;;5.17;3.73;;;6.30;99.90;;;;;;4905967;29;20185;-92
2023/03/07 11:15:07;;;;;;;4.87;3.90;;;6.20;99.90;;;;;;4915587;29;20218;-92
2023/03/07 11:17:47;;;;;;;6.67;4.50;;;6.20;99.90;;;;;;4923008;29;20214;-92
2023/03/07 11:20:46;;;;;;;4.50;3.60;;;6.30;99.90;;;;;;4921894;29;20181;-91
2023/03/07 11:23:29;;;;;;;6.17;4.17;;;6.30;99.90;;;;;;4910769;29;20171;-91
2023/03/07 11:26:01;;;;;;;5.87;4.10;;;6.40;99.90;;;;;;4909852;29;20292;-91
2023/03/07 11:28:34;;;;;;;7.87;4.40;;;6.50;99.90;;;;;;4896813;29;20289;-90
2023/03/07 11:31:25;;;;;;;4.87;3.90;;;6.60;99.90;;;;;;4912350;29;20177;-91
2023/03/07 11:34:16;;;;;;;3.87;3.47;;;6.40;99.00;;;;;;4909827;29;20206;-92
2023/03/07 11:37:37;;;;;;;4.57;3.23;;;6.30;98.10;;;;;;4906910;29;20190;-93
2023/03/07 11:43:36;;;;;;;6.17;5.27;;;6.40;98.50;;;;;;4907697;29;20245;-91
2023/03/07 11:46:34;;;;;;;6.17;4.97;;;6.40;99.00;;;;;;4912475;29;20436;-91
2023/03/07 11:49:19;;;;;;;6.23;4.60;;;6.40;97.50;;;;;;4920633;29;20195;-91
2023/03/07 11:51:57;;;;;;;5.80;4.53;;;6.30;98.00;;;;;;4922278;29;20222;-89
2023/03/07 11:54:26;;;;;;;5.40;4.37;;;6.40;97.30;;;;;;4913749;29;20217;-91
2023/03/07 11:56:56;;;;;;;4.63;4.00;;;6.20;97.10;;;;;;4913666;29;20249;-92
2023/03/07 11:59:32;;;;;;;7.50;4.90;;;6.30;96.50;;;;;;4906352;29;20201;-91
2023/03/07 12:02:20;;;;;;;5.73;5.03;;;6.10;98.60;;;;;;4905523;29;20178;-92
2023/03/07 12:05:18;;;;;;;6.70;4.90;;;6.00;99.30;;;;;;4911321;29;20194;-89
2023/03/07 12:08:01;;;;;;;6.90;5.63;;;6.10;99.90;;;;;;4925644;29;20187;-91
2023/03/07 12:10:52;;;;;;;5.60;4.67;;;6.00;99.90;;;;;;4915971;29;20246;-90
2023/03/07 12:13:44;;;;;;;5.63;4.57;;;6.10;99.50;;;;;;4915419;29;20308;-90
2023/03/07 12:19:59;;;;;;;7.57;5.03;;;6.10;98.20;;;;;;4919520;29;20173;-92
2023/03/07 12:23:05;;;;;;;7.43;4.77;;;6.20;97.10;;;;;;4919672;29;20227;-89
2023/03/07 12:25:47;;;;;;;5.60;4.60;;;6.30;96.50;;;;;;4920511;29;20534;-90
2023/03/07 12:29:09;;;;;;;4.47;3.13;;;6.40;95.70;;;;;;4905918;29;20186;-91
2023/03/07 12:32:14;;;;;;;5.07;3.37;;;6.20;90.70;;;;;;4908583;29;20192;-90
2023/03/07 12:35:14;;;;;;;4.63;3.20;;;6.10;93.40;;;;;;4910630;29;20217;-89
2023/03/07 12:37:49;;;;;;;4.53;3.40;;;6.10;91.80;;;;;;4908560;29;20269;-90
2023/03/07 12:40:32;;;;;;;4.63;3.40;;;6.10;92.80;;;;;;4907816;29;20197;-91
2023/03/07 12:43:28;;;;;;;4.67;3.70;;;6.10;92.10;;;;;;4910704;29;20205;-89
2023/03/07 12:46:08;;;;;;;4.37;3.80;;;6.00;94.10;;;;;;4902859;29;20222;-90
2023/03/07 12:48:53;;;;;;;6.10;4.30;;;6.10;96.00;;;;;;4914202;29;20203;-91
2023/03/07 12:51:26;;;;;;;6.47;4.57;;;6.30;96.30;;;;;;4910716;29;20170;-92
2023/03/07 12:54:17;;;;;;;7.37;4.40;;;6.30;97.10;;;;;;4902811;29;20217;-90
2023/03/07 12:56:57;;;;;;;3.97;3.27;;;6.40;97.90;;;;;;4916899;29;20332;-92
2023/03/07 12:59:25;;;;;;;5.60;3.97;;;6.20;98.30;;;;;;4917699;29;20169;-90
2023/03/07 13:02:31;;;;;;;3.07;2.17;;;6.30;98.30;;;;;;4914516;29;20178;-89
2023/03/07 13:05:01;;;;;;;3.23;2.63;;;6.10;96.50;;;;;;4916202;29;20226;-90
2023/03/07 13:08:09;;;;;;;3.07;2.57;;;6.10;96.50;;;;;;4908449;29;20631;-91
2023/03/07 13:11:29;;;;;;;3.30;2.57;;;6.00;96.40;;;;;;4907632;29;20273;-89
2023/03/07 13:14:39;;;;;;;5.73;2.40;;;6.20;95.60;;;;;;4915021;29;20210;-90
2023/03/07 13:17:41;;;;;;;3.80;2.83;;;6.30;93.80;;;;;;4914163;29;20177;-91